createdAt,value
2023-03-08T00:00:38.802Z,1.22
2023-03-08T00:01:40.859Z,1.25
2023-03-08T00:02:45.562Z,1.26
2023-03-08T00:03:47.776Z,1.26
2023-03-08T00:04:52.495Z,1.22
2023-03-08T00:05:54.796Z,1.16
2023-03-08T00:06:59.376Z,1.14
2023-03-08T00:08:01.361Z,1.10
2023-03-08T00:09:06.245Z,1.11
2023-03-08T00:10:10.378Z,1.15
2023-03-08T00:11:18.369Z,1.10
2023-03-08T00:12:20.470Z,1.09
2023-03-08T00:13:25.118Z,1.18
2023-03-08T00:14:29.797Z,1.18
2023-03-08T00:15:31.836Z,1.21
2023-03-08T00:16:36.453Z,1.25
2023-03-08T00:17:39.172Z,1.25
2023-03-08T00:18:44.331Z,1.29
2023-03-08T00:19:46.591Z,1.33
2023-03-08T00:20:51.213Z,1.29
2023-03-08T00:21:53.616Z,1.28
2023-03-08T00:22:58.241Z,1.30
2023-03-08T00:24:00.293Z,1.33
2023-03-08T00:25:04.975Z,1.32
2023-03-08T00:26:07.441Z,1.30
2023-03-08T00:27:14.645Z,1.27
2023-03-08T00:28:16.636Z,1.26
2023-03-08T00:29:21.321Z,1.29
2023-03-08T00:30:23.405Z,1.29
2023-03-08T00:31:28.120Z,1.28
2023-03-08T00:32:30.517Z,1.30
2023-03-08T00:33:35.761Z,1.32
2023-03-08T00:34:37.731Z,1.32
2023-03-08T00:35:42.649Z,1.27
2023-03-08T00:36:44.900Z,1.24
2023-03-08T00:37:49.579Z,1.25
2023-03-08T00:38:52.698Z,1.20
2023-03-08T00:39:57.708Z,1.18
2023-03-08T00:41:00.009Z,1.17
2023-03-08T00:42:04.889Z,1.21
2023-03-08T00:43:09.504Z,1.21
2023-03-08T00:44:14.333Z,1.19
2023-03-08T00:45:16.536Z,1.16
2023-03-08T00:46:21.443Z,1.15
2023-03-08T00:47:23.478Z,1.07
2023-03-08T00:48:28.420Z,1.06
2023-03-08T00:49:30.740Z,1.00
2023-03-08T00:50:35.842Z,1.08
2023-03-08T00:51:40.559Z,1.03
2023-03-08T00:52:42.878Z,1.02
2023-03-08T00:53:47.792Z,1.00
2023-03-08T00:54:49.888Z,1.03
2023-03-08T00:55:56.466Z,1.00
2023-03-08T00:56:58.542Z,1.01
2023-03-08T00:58:03.256Z,1.04
2023-03-08T00:59:07.952Z,0.98
2023-03-08T01:00:15.297Z,0.97
2023-03-08T01:01:19.424Z,1.00
2023-03-08T01:02:24.092Z,1.07
2023-03-08T01:03:26.532Z,1.07
2023-03-08T01:04:31.153Z,1.06
2023-03-08T01:05:33.219Z,1.06
2023-03-08T01:06:37.812Z,1.01
2023-03-08T01:07:40.141Z,0.99
2023-03-08T01:08:45.290Z,0.97
2023-03-08T01:09:47.486Z,0.95
2023-03-08T01:10:53.585Z,0.89
2023-03-08T01:11:55.573Z,0.85
2023-03-08T01:13:00.173Z,0.80
2023-03-08T01:14:02.321Z,0.75
2023-03-08T01:15:10.826Z,0.75
2023-03-08T01:16:17.715Z,0.69
2023-03-08T01:17:22.737Z,0.73
2023-03-08T01:18:25.313Z,0.67
2023-03-08T01:19:29.923Z,0.58
2023-03-08T01:20:32.493Z,0.61
2023-03-08T01:21:37.190Z,0.59
2023-03-08T01:22:39.261Z,0.62
2023-03-08T01:23:43.926Z,0.63
2023-03-08T01:26:40.645Z,0.53
2023-03-08T01:27:42.713Z,0.46
2023-03-08T01:28:48.130Z,0.43
2023-03-08T01:29:50.206Z,0.49
2023-03-08T01:30:57.611Z,0.52
2023-03-08T01:31:59.705Z,0.52
2023-03-08T01:33:04.382Z,0.54
2023-03-08T01:34:06.468Z,0.51
2023-03-08T01:35:12.434Z,0.53
2023-03-08T01:36:16.096Z,0.55
2023-03-08T01:37:20.917Z,0.57
2023-03-08T01:38:23.772Z,0.61
2023-03-08T01:39:28.507Z,0.61
2023-03-08T01:40:30.648Z,0.62
2023-03-08T01:41:35.423Z,0.68
2023-03-08T01:42:39.146Z,0.71
2023-03-08T01:43:43.861Z,0.68
2023-03-08T01:44:51.018Z,0.68
2023-03-08T01:46:20.142Z,0.66
2023-03-08T01:47:24.770Z,0.73
2023-03-08T01:48:35.536Z,0.75
2023-03-08T01:49:37.839Z,0.76
2023-03-08T01:50:43.959Z,0.76
2023-03-08T01:51:54.662Z,0.75
2023-03-08T01:52:58.946Z,0.72
2023-03-08T01:54:07.936Z,0.68
2023-03-08T01:55:12.487Z,0.66
2023-03-08T01:56:21.658Z,0.74
2023-03-08T01:57:27.045Z,0.73
2023-03-08T01:58:32.142Z,0.68
2023-03-08T01:59:38.257Z,0.66
2023-03-08T02:00:40.331Z,0.69
2023-03-08T02:01:48.343Z,0.72
2023-03-08T02:02:53.452Z,0.74
2023-03-08T02:03:58.171Z,0.68
2023-03-08T02:05:00.238Z,0.70
2023-03-08T02:06:05.999Z,0.66
2023-03-08T02:07:08.063Z,0.63
2023-03-08T02:08:13.272Z,0.65
2023-03-08T02:09:15.431Z,0.65
2023-03-08T02:10:21.862Z,0.60
2023-03-08T02:11:25.747Z,0.54
2023-03-08T02:12:30.613Z,0.49
2023-03-08T02:13:32.839Z,0.43
2023-03-08T02:14:37.851Z,0.37
2023-03-08T02:15:40.018Z,0.31
2023-03-08T02:16:47.326Z,0.38
2023-03-08T02:17:49.450Z,0.47
2023-03-08T02:18:59.967Z,0.46
2023-03-08T02:20:08.450Z,0.43
2023-03-08T02:21:13.096Z,0.37
2023-03-08T02:22:16.841Z,0.36
2023-03-08T02:23:25.988Z,0.34
2023-03-08T02:24:27.993Z,0.34
2023-03-08T02:25:33.007Z,0.33
2023-03-08T02:26:37.530Z,0.29
2023-03-08T02:27:42.215Z,0.27
2023-03-08T02:28:44.992Z,0.25
2023-03-08T02:29:50.055Z,0.24
2023-03-08T02:30:52.387Z,0.24
2023-03-08T02:31:57.029Z,0.27
2023-03-08T02:32:59.054Z,0.27
2023-03-08T02:34:03.735Z,0.23
2023-03-08T02:35:06.570Z,0.25
2023-03-08T02:36:12.373Z,0.24
2023-03-08T02:37:14.476Z,0.21
2023-03-08T02:38:21.122Z,0.22
2023-03-08T02:39:25.734Z,0.27
2023-03-08T02:40:30.480Z,0.30
2023-03-08T02:41:32.539Z,0.28
2023-03-08T02:42:37.131Z,0.31
2023-03-08T02:43:39.311Z,0.33
2023-03-08T02:44:44.022Z,0.31
2023-03-08T02:45:46.647Z,0.31
2023-03-08T02:46:51.457Z,0.29
2023-03-08T02:47:53.610Z,0.29
2023-03-08T02:48:58.303Z,0.25
2023-03-08T02:50:00.400Z,0.21
2023-03-08T02:51:05.089Z,0.18
2023-03-08T02:52:07.547Z,0.15
2023-03-08T02:53:12.618Z,0.16
2023-03-08T02:54:16.831Z,0.16
2023-03-08T02:55:24.370Z,0.20
2023-03-08T02:56:26.385Z,0.21
2023-03-08T02:57:31.028Z,0.29
2023-03-08T02:58:33.092Z,0.32
2023-03-08T02:59:37.707Z,0.29
2023-03-08T03:00:39.822Z,0.27
2023-03-08T03:01:44.441Z,0.28
2023-03-08T03:02:46.649Z,0.30
2023-03-08T03:03:51.253Z,0.35
2023-03-08T03:04:53.328Z,0.38
2023-03-08T03:05:58.110Z,0.40
2023-03-08T03:07:00.942Z,0.44
2023-03-08T03:08:05.540Z,0.41
2023-03-08T03:09:08.781Z,0.40
2023-03-08T03:10:16.511Z,0.37
2023-03-08T03:11:22.668Z,0.39
2023-03-08T03:12:27.319Z,0.40
2023-03-08T03:13:29.421Z,0.37
2023-03-08T03:14:34.181Z,0.38
2023-03-08T03:15:38.513Z,0.45
2023-03-08T03:16:43.431Z,0.45
2023-03-08T03:17:45.560Z,0.47
2023-03-08T03:18:50.185Z,0.48
2023-03-08T03:19:52.200Z,0.47
2023-03-08T03:20:56.777Z,0.47
2023-03-08T03:21:58.793Z,0.51
2023-03-08T03:23:03.434Z,0.50
2023-03-08T03:24:05.990Z,0.47
2023-03-08T03:25:11.629Z,0.50
2023-03-08T03:26:15.701Z,0.47
2023-03-08T03:27:23.271Z,0.53
2023-03-08T03:28:27.851Z,0.52
2023-03-08T03:29:29.902Z,0.48
2023-03-08T03:30:34.564Z,0.45
2023-03-08T03:31:36.729Z,0.46
2023-03-08T03:32:41.369Z,0.50
2023-03-08T03:33:44.104Z,0.57
2023-03-08T03:34:50.232Z,0.55
2023-03-08T03:35:52.383Z,0.57
2023-03-08T03:36:57.005Z,0.54
2023-03-08T03:37:59.063Z,0.53
2023-03-08T03:39:03.762Z,0.59
2023-03-08T03:40:07.192Z,0.57
2023-03-08T03:41:13.989Z,0.56
2023-03-08T03:42:23.041Z,0.51
2023-03-08T03:43:25.025Z,0.53
2023-03-08T03:44:31.969Z,0.54
2023-03-08T03:45:33.994Z,0.56
2023-03-08T03:46:38.684Z,0.54
2023-03-08T03:47:40.700Z,0.54
2023-03-08T03:48:45.762Z,0.57
2023-03-08T03:49:47.826Z,0.65
2023-03-08T03:50:57.628Z,0.63
2023-03-08T03:51:59.698Z,0.58
2023-03-08T03:53:04.367Z,0.54
2023-03-08T03:54:07.462Z,0.54
2023-03-08T03:55:12.929Z,0.51
2023-03-08T03:56:17.267Z,0.50
2023-03-08T03:57:25.480Z,0.49
2023-03-08T03:58:27.523Z,0.46
2023-03-08T03:59:34.120Z,0.47
2023-03-08T04:00:36.149Z,0.44
2023-03-08T04:01:41.116Z,0.44
2023-03-08T04:02:43.272Z,0.37
2023-03-08T04:03:48.036Z,0.33
2023-03-08T04:04:50.760Z,0.30
2023-03-08T04:05:55.951Z,0.31
2023-03-08T04:06:58.079Z,0.27
2023-03-08T04:08:02.699Z,0.37
2023-03-08T04:09:06.707Z,0.32
2023-03-08T04:10:11.797Z,0.30
2023-03-08T04:11:15.725Z,0.30
2023-03-08T04:12:20.394Z,0.32
2023-03-08T04:13:25.089Z,0.25
2023-03-08T04:14:29.727Z,0.22
2023-03-08T04:15:31.895Z,0.13
2023-03-08T04:16:37.834Z,0.07
2023-03-08T04:17:40.093Z,0.03
2023-03-08T04:18:45.604Z,0.03
2023-03-08T04:19:49.277Z,0.02
2023-03-08T04:20:53.927Z,0.03
2023-03-08T04:21:55.959Z,0.04
2023-03-08T04:23:00.662Z,0.02
2023-03-08T04:24:03.029Z,-0.03
2023-03-08T04:25:08.743Z,-0.04
2023-03-08T04:26:10.925Z,-0.02
2023-03-08T04:27:15.642Z,0.01
2023-03-08T04:28:17.642Z,-0.03
2023-03-08T04:29:24.982Z,-0.09
2023-03-08T04:30:27.033Z,-0.12
2023-03-08T04:31:32.789Z,-0.15
2023-03-08T04:32:35.370Z,-0.14
2023-03-08T04:33:40.058Z,-0.19
2023-03-08T04:34:43.125Z,-0.20
2023-03-08T04:35:47.889Z,-0.28
2023-03-08T04:36:52.585Z,-0.33
2023-03-08T04:37:54.659Z,-0.32
2023-03-08T04:38:59.533Z,-0.28
2023-03-08T04:40:01.607Z,-0.28
2023-03-08T04:41:05.568Z,-0.33
2023-03-08T04:42:10.763Z,-0.35
2023-03-08T04:43:13.093Z,-0.33
2023-03-08T04:44:17.750Z,-0.28
2023-03-08T04:45:22.529Z,-0.25
2023-03-08T04:46:29.828Z,-0.24
2023-03-08T04:47:31.838Z,-0.20
2023-03-08T04:48:36.944Z,-0.07
2023-03-08T04:49:38.990Z,0.01
2023-03-08T04:50:43.909Z,0.11
2023-03-08T04:51:48.733Z,0.16
2023-03-08T04:52:50.810Z,0.21
2023-03-08T04:53:55.466Z,0.25
2023-03-08T04:54:57.717Z,0.26
2023-03-08T04:56:02.932Z,0.27
2023-03-08T04:57:05.173Z,0.30
2023-03-08T04:58:09.816Z,0.31
2023-03-08T04:59:11.868Z,0.36
2023-03-08T05:00:17.438Z,0.35
2023-03-08T05:01:25.912Z,0.37
2023-03-08T05:02:28.111Z,0.37
2023-03-08T05:03:32.785Z,0.36
2023-03-08T05:04:35.042Z,0.34
2023-03-08T05:05:39.879Z,0.32
2023-03-08T05:06:41.885Z,0.30
2023-03-08T05:07:46.546Z,0.28
2023-03-08T05:08:51.177Z,0.27
2023-03-08T05:09:53.150Z,0.26
2023-03-08T05:11:01.172Z,0.21
2023-03-08T05:12:03.760Z,0.21
2023-03-08T05:13:08.432Z,0.21
2023-03-08T05:14:10.562Z,0.19
2023-03-08T05:15:15.238Z,0.20
2023-03-08T05:16:17.466Z,0.19
2023-03-08T05:17:24.941Z,0.19
2023-03-08T05:18:27.093Z,0.19
2023-03-08T05:19:31.831Z,0.22
2023-03-08T05:20:33.869Z,0.22
2023-03-08T05:21:38.523Z,0.22
2023-03-08T05:22:56.648Z,0.18
2023-03-08T05:24:03.487Z,0.20
2023-03-08T05:25:06.377Z,0.18
2023-03-08T05:26:13.540Z,0.16
2023-03-08T05:27:15.621Z,0.15
2023-03-08T05:28:20.265Z,0.14
2023-03-08T05:29:23.209Z,0.16
2023-03-08T05:30:27.950Z,0.14
2023-03-08T05:31:30.134Z,0.20
2023-03-08T05:32:37.482Z,0.25
2023-03-08T05:33:40.214Z,0.26
2023-03-08T05:34:44.953Z,0.30
2023-03-08T05:35:54.502Z,0.25
2023-03-08T05:36:59.973Z,0.26
2023-03-08T05:38:02.094Z,0.28
2023-03-08T05:39:07.058Z,0.28
2023-03-08T05:40:10.979Z,0.27
2023-03-08T05:41:17.484Z,0.27
2023-03-08T05:42:20.539Z,0.24
2023-03-08T05:43:25.196Z,0.23
2023-03-08T05:44:27.397Z,0.22
2023-03-08T05:45:32.330Z,0.23
2023-03-08T05:46:34.539Z,0.26
2023-03-08T05:47:41.824Z,0.26
2023-03-08T05:48:44.556Z,0.28
2023-03-08T05:49:49.316Z,0.34
2023-03-08T05:50:51.389Z,0.34
2023-03-08T05:51:56.121Z,0.35
2023-03-08T05:52:58.131Z,0.37
2023-03-08T05:54:02.792Z,0.39
2023-03-08T05:55:05.856Z,0.39
2023-03-08T05:56:12.397Z,0.41
2023-03-08T05:57:14.400Z,0.43
2023-03-08T05:58:19.297Z,0.43
2023-03-08T05:59:21.486Z,0.40
2023-03-08T06:00:27.377Z,0.41
2023-03-08T06:01:29.650Z,0.43
2023-03-08T06:02:34.316Z,0.41
2023-03-08T06:03:39.090Z,0.41
2023-03-08T06:04:43.923Z,0.40
2023-03-08T06:05:45.941Z,0.38
2023-03-08T06:06:50.604Z,0.38
2023-03-08T06:07:52.589Z,0.37
2023-03-08T06:08:57.280Z,0.42
2023-03-08T06:09:59.376Z,0.49
2023-03-08T06:11:04.016Z,0.54
2023-03-08T06:12:07.010Z,0.51
2023-03-08T06:13:11.584Z,0.57
2023-03-08T06:14:13.611Z,0.60
2023-03-08T06:15:18.550Z,0.64
2023-03-08T06:16:20.679Z,0.73
2023-03-08T06:17:25.373Z,0.76
2023-03-08T06:18:28.232Z,0.75
2023-03-08T06:19:35.699Z,0.70
2023-03-08T06:20:37.817Z,0.66
2023-03-08T06:21:42.446Z,0.64
2023-03-08T06:22:44.662Z,0.63
2023-03-08T06:23:49.876Z,0.62
2023-03-08T06:24:55.045Z,0.64
2023-03-08T06:26:00.224Z,0.68
2023-03-08T06:27:02.276Z,0.69
2023-03-08T06:28:07.168Z,0.74
2023-03-08T06:29:09.225Z,0.79
2023-03-08T06:30:15.012Z,0.76
2023-03-08T06:31:18.859Z,0.82
2023-03-08T06:32:23.859Z,0.78
2023-03-08T06:33:28.672Z,0.73
2023-03-08T06:34:36.113Z,0.69
2023-03-08T06:35:40.796Z,0.63
2023-03-08T06:36:43.411Z,0.63
2023-03-08T06:37:48.159Z,0.59
2023-03-08T06:38:53.309Z,0.61
2023-03-08T06:39:56.197Z,0.59
2023-03-08T06:41:01.366Z,0.59
2023-03-08T06:42:03.439Z,0.59
2023-03-08T06:43:08.145Z,0.61
2023-03-08T06:44:13.275Z,0.60
2023-03-08T06:45:18.040Z,0.60
2023-03-08T06:46:20.390Z,0.61
2023-03-08T06:47:25.394Z,0.62
2023-03-08T06:48:27.432Z,0.69
2023-03-08T06:49:32.220Z,0.83
2023-03-08T06:50:36.979Z,0.86
2023-03-08T06:51:41.676Z,0.89
2023-03-08T06:52:43.927Z,0.96
2023-03-08T06:53:48.928Z,1.03
2023-03-08T06:54:51.077Z,1.04
2023-03-08T06:55:55.945Z,1.07
2023-03-08T06:56:57.958Z,1.05
2023-03-08T06:58:02.598Z,1.09
2023-03-08T06:59:04.622Z,1.04
2023-03-08T07:00:13.775Z,0.99
2023-03-08T07:01:18.522Z,0.96
2023-03-08T07:02:20.575Z,1.03
2023-03-08T07:03:25.835Z,1.11
2023-03-08T07:04:28.037Z,1.20
2023-03-08T07:05:32.773Z,1.15
2023-03-08T07:06:37.351Z,1.18
2023-03-08T07:07:41.963Z,1.23
2023-03-08T07:08:44.223Z,1.21
2023-03-08T07:09:48.924Z,1.24
2023-03-08T07:10:51.024Z,1.28
2023-03-08T07:11:55.777Z,1.21
2023-03-08T07:12:57.911Z,1.24
2023-03-08T07:14:02.623Z,1.23
2023-03-08T07:15:05.936Z,1.37
2023-03-08T07:16:12.574Z,1.42
2023-03-08T07:17:17.237Z,1.35
2023-03-08T07:18:21.505Z,1.27
2023-03-08T07:19:26.676Z,1.24
2023-03-08T07:20:28.773Z,1.26
2023-03-08T07:21:33.582Z,1.25
2023-03-08T07:22:38.433Z,1.29
2023-03-08T07:23:43.089Z,1.42
2023-03-08T07:24:50.356Z,1.45
2023-03-08T07:25:52.388Z,1.46
2023-03-08T07:26:57.030Z,1.52
2023-03-08T07:27:59.360Z,1.63
2023-03-08T07:29:03.990Z,1.66
2023-03-08T07:30:11.414Z,1.70
2023-03-08T07:31:13.650Z,1.70
2023-03-08T07:32:18.508Z,1.76
2023-03-08T07:33:21.442Z,1.89
2023-03-08T07:34:26.027Z,1.94
2023-03-08T07:35:28.123Z,1.99
2023-03-08T07:36:32.880Z,2.07
2023-03-08T07:37:37.928Z,2.14
2023-03-08T07:38:42.656Z,2.18
2023-03-08T07:39:44.780Z,2.21
2023-03-08T07:40:56.365Z,2.26
2023-03-08T07:42:01.019Z,2.24
2023-03-08T07:43:06.458Z,2.24
2023-03-08T07:44:11.294Z,2.24
2023-03-08T07:45:14.413Z,2.27
2023-03-08T07:46:19.059Z,2.30
2023-03-08T07:47:21.953Z,2.32
2023-03-08T07:48:26.610Z,2.32
2023-03-08T07:49:28.950Z,2.26
2023-03-08T07:50:33.729Z,2.23
2023-03-08T07:51:38.479Z,2.24
2023-03-08T07:52:43.118Z,2.25
2023-03-08T07:53:47.904Z,2.22
2023-03-08T07:54:50.032Z,2.24
2023-03-08T07:55:54.737Z,2.28
2023-03-08T07:56:59.494Z,2.32
2023-03-08T07:58:01.528Z,2.34
2023-03-08T07:59:06.242Z,2.34
2023-03-08T08:00:09.829Z,2.37
2023-03-08T08:01:15.916Z,2.42
2023-03-08T08:02:18.128Z,2.36
2023-03-08T08:03:22.840Z,2.38
2023-03-08T08:04:24.902Z,2.36
2023-03-08T08:05:29.734Z,2.38
2023-03-08T08:06:31.877Z,2.38
2023-03-08T08:07:36.612Z,2.41
2023-03-08T08:08:43.847Z,2.43
2023-03-08T08:09:45.951Z,2.47
2023-03-08T08:10:50.601Z,2.35
2023-03-08T08:11:52.592Z,2.36
2023-03-08T08:12:57.206Z,2.44
2023-03-08T08:13:59.300Z,2.50
2023-03-08T08:15:04.091Z,2.49
2023-03-08T08:16:10.021Z,2.50
2023-03-08T08:17:12.085Z,2.28
2023-03-08T08:18:17.094Z,2.20
2023-03-08T08:19:21.675Z,2.26
2023-03-08T08:20:26.959Z,2.31
2023-03-08T08:21:31.584Z,2.32
2023-03-08T08:22:35.667Z,2.17
2023-03-08T08:23:43.588Z,1.85
2023-03-08T08:24:48.403Z,1.85
2023-03-08T08:27:45.114Z,2.04
2023-03-08T08:28:52.636Z,2.03
2023-03-08T08:29:57.266Z,2.06
2023-03-08T08:31:00.732Z,2.12
2023-03-08T08:32:06.364Z,2.20
2023-03-08T08:33:10.981Z,2.05
2023-03-08T08:34:15.622Z,2.19
2023-03-08T08:35:20.598Z,2.33
2023-03-08T08:36:23.114Z,2.50
2023-03-08T08:37:27.845Z,2.60
2023-03-08T08:38:32.554Z,2.67
2023-03-08T08:39:40.505Z,2.53
2023-03-08T08:40:42.576Z,2.64
2023-03-08T08:41:47.393Z,2.63
2023-03-08T08:42:49.653Z,2.72
2023-03-08T08:43:56.785Z,2.84
2023-03-08T08:45:01.438Z,2.90
2023-03-08T08:46:04.980Z,2.97
2023-03-08T08:47:09.657Z,2.96
2023-03-08T08:48:11.831Z,2.96
2023-03-08T08:49:16.449Z,3.00
2023-03-08T08:50:21.525Z,3.01
2023-03-08T08:51:26.195Z,3.02
2023-03-08T08:52:28.232Z,2.98
2023-03-08T08:53:32.958Z,2.93
2023-03-08T08:54:41.105Z,2.86
2023-03-08T08:55:45.207Z,2.82
2023-03-08T08:56:50.393Z,2.79
2023-03-08T08:57:52.481Z,2.76
2023-03-08T08:58:57.639Z,2.75
2023-03-08T09:00:02.279Z,2.75
2023-03-08T09:01:04.838Z,2.80
2023-03-08T09:02:10.069Z,2.87
2023-03-08T09:03:12.339Z,2.90
2023-03-08T09:04:17.483Z,2.92
2023-03-08T09:05:20.491Z,2.99
2023-03-08T09:06:26.935Z,3.05
2023-03-08T09:07:31.648Z,3.17
2023-03-08T09:08:33.777Z,3.28
2023-03-08T09:09:42.272Z,3.45
2023-03-08T09:10:46.939Z,3.59
2023-03-08T09:11:55.569Z,3.56
2023-03-08T09:12:59.267Z,3.67
2023-03-08T09:14:05.541Z,3.84
2023-03-08T09:15:12.260Z,3.91
2023-03-08T09:16:21.803Z,3.93
2023-03-08T09:17:26.529Z,3.98
2023-03-08T09:18:28.636Z,4.03
2023-03-08T09:19:33.312Z,3.79
2023-03-08T09:20:35.355Z,3.84
2023-03-08T09:21:40.056Z,3.69
2023-03-08T09:22:42.211Z,3.80
2023-03-08T09:23:47.439Z,3.90
2023-03-08T09:24:55.494Z,3.87
2023-03-08T09:25:59.478Z,3.88
2023-03-08T09:27:07.811Z,3.73
2023-03-08T09:28:11.303Z,3.71
2023-03-08T09:29:16.281Z,3.86
2023-03-08T09:30:18.995Z,3.87
2023-03-08T09:31:24.056Z,3.88
2023-03-08T09:32:29.519Z,3.74
2023-03-08T09:33:31.567Z,3.66
2023-03-08T09:34:36.280Z,3.76
2023-03-08T09:35:38.381Z,3.66
2023-03-08T09:36:43.441Z,3.68
2023-03-08T09:37:45.426Z,3.75
2023-03-08T09:38:50.597Z,3.88
2023-03-08T09:39:55.206Z,3.97
2023-03-08T09:41:13.430Z,4.00
2023-03-08T09:42:23.726Z,3.64
2023-03-08T09:43:40.549Z,3.47
2023-03-08T09:44:57.429Z,3.58
2023-03-08T09:46:02.088Z,3.55
2023-03-08T09:48:35.498Z,3.37
2023-03-08T09:49:39.195Z,3.28
2023-03-08T09:50:48.251Z,3.17
2023-03-08T09:52:00.936Z,3.05
2023-03-08T09:53:10.451Z,3.05
2023-03-08T09:54:17.476Z,2.99
2023-03-08T09:55:30.608Z,2.92
2023-03-08T09:56:41.267Z,2.84
2023-03-08T09:57:56.304Z,2.87
2023-03-08T09:59:02.182Z,3.08
2023-03-08T10:00:12.131Z,3.15
2023-03-08T10:01:27.404Z,3.17
2023-03-08T10:02:39.077Z,3.00
2023-03-08T10:03:52.823Z,3.07
2023-03-08T10:05:13.214Z,3.25
2023-03-08T10:06:24.485Z,3.26
2023-03-08T10:07:38.550Z,3.21
2023-03-08T10:08:52.606Z,3.14
2023-03-08T10:10:09.804Z,3.05
2023-03-08T10:11:24.036Z,3.08
2023-03-08T10:12:35.723Z,3.12
2023-03-08T10:13:42.977Z,3.09
2023-03-08T10:14:49.402Z,3.17
2023-03-08T10:15:57.723Z,3.16
2023-03-08T10:17:06.132Z,3.28
2023-03-08T10:18:16.853Z,3.17
2023-03-08T10:19:26.550Z,3.21
2023-03-08T10:20:34.418Z,3.26
2023-03-08T10:21:41.989Z,3.25
2023-03-08T10:22:58.870Z,3.26
2023-03-08T10:24:05.541Z,3.33
2023-03-08T10:25:22.395Z,3.38
2023-03-08T10:26:30.661Z,3.43
2023-03-08T10:27:37.524Z,3.43
2023-03-08T10:28:42.513Z,3.44
2023-03-08T10:29:52.353Z,3.46
2023-03-08T10:30:59.926Z,3.47
2023-03-08T10:32:02.343Z,3.50
2023-03-08T10:33:14.668Z,3.51
2023-03-08T10:34:20.947Z,3.54
2023-03-08T10:35:36.577Z,3.57
2023-03-08T10:36:51.413Z,3.59
2023-03-08T10:37:56.017Z,3.57
2023-03-08T10:39:05.120Z,3.64
2023-03-08T10:40:13.926Z,3.66
2023-03-08T10:41:17.366Z,3.72
2023-03-08T10:42:27.552Z,3.74
2023-03-08T10:43:32.139Z,3.71
2023-03-08T10:44:41.250Z,3.76
2023-03-08T10:45:43.426Z,3.80
2023-03-08T10:46:53.154Z,3.81
2023-03-08T10:48:00.724Z,3.85
2023-03-08T10:49:10.514Z,3.94
2023-03-08T10:50:19.833Z,3.93
2023-03-08T10:51:23.931Z,3.93
2023-03-08T10:52:30.791Z,3.95
2023-03-08T10:53:33.759Z,3.96
2023-03-08T10:54:38.512Z,3.97
2023-03-08T10:55:48.764Z,4.08
2023-03-08T10:56:59.756Z,4.17
2023-03-08T10:58:07.058Z,4.17
2023-03-08T10:59:27.713Z,4.26
2023-03-08T11:00:37.580Z,4.23
2023-03-08T11:01:49.388Z,4.30
2023-03-08T11:03:05.560Z,4.24
2023-03-08T11:04:18.258Z,4.32
2023-03-08T11:05:22.813Z,4.26
2023-03-08T11:06:28.717Z,4.31
2023-03-08T11:07:32.966Z,4.30
2023-03-08T11:08:39.817Z,4.28
2023-03-08T11:09:41.888Z,4.33
2023-03-08T11:10:46.601Z,4.38
2023-03-08T11:11:51.383Z,4.46
2023-03-08T11:13:15.680Z,4.52
2023-03-08T11:14:20.631Z,4.55
2023-03-08T11:15:22.644Z,4.56
2023-03-08T11:16:45.989Z,4.61
2023-03-08T11:17:58.269Z,4.71
2023-03-08T11:19:11.286Z,4.72
2023-03-08T11:20:21.298Z,4.82
2023-03-08T11:21:30.111Z,4.86
2023-03-08T11:22:52.923Z,4.95
2023-03-08T11:24:09.699Z,5.03
2023-03-08T11:25:32.611Z,5.15
2023-03-08T11:26:47.309Z,5.24
2023-03-08T11:28:15.821Z,5.31
2023-03-08T11:29:30.761Z,5.41
2023-03-08T11:30:52.625Z,5.50
2023-03-08T11:32:03.740Z,5.49
2023-03-08T11:33:32.749Z,5.67
2023-03-08T11:34:56.256Z,5.74
2023-03-08T11:36:05.659Z,5.81
2023-03-08T11:37:19.145Z,5.93
2023-03-08T11:38:27.819Z,6.01
2023-03-08T11:39:33.538Z,6.03
2023-03-08T11:41:00.936Z,5.98
2023-03-08T11:42:12.483Z,6.01
2023-03-08T11:43:25.597Z,6.10
2023-03-08T11:44:44.287Z,6.03
2023-03-08T11:46:01.335Z,6.16
2023-03-08T11:47:40.596Z,6.20
2023-03-08T11:49:17.348Z,6.22
2023-03-08T11:50:23.617Z,6.21
2023-03-08T11:51:35.471Z,6.18
2023-03-08T11:52:46.336Z,6.24
2023-03-08T11:54:02.063Z,6.39
2023-03-08T11:55:20.698Z,6.45
2023-03-08T11:56:40.625Z,6.36
2023-03-08T11:57:47.140Z,6.35
2023-03-08T12:00:49.689Z,6.52
2023-03-08T12:01:57.118Z,6.61
2023-03-08T12:03:06.266Z,6.57
2023-03-08T12:04:13.897Z,6.61
2023-03-08T12:05:30.041Z,6.57
2023-03-08T12:06:43.987Z,6.60
2023-03-08T12:07:56.042Z,6.67
2023-03-08T12:09:04.922Z,6.79
2023-03-08T12:10:21.903Z,6.76
2023-03-08T12:11:28.193Z,6.84
2023-03-08T12:12:37.971Z,6.81
2023-03-08T12:13:44.460Z,6.76
2023-03-08T12:14:59.591Z,6.87
2023-03-08T12:16:12.334Z,6.87
2023-03-08T12:17:23.335Z,6.89
2023-03-08T12:18:49.530Z,6.92
2023-03-08T12:19:54.409Z,6.98
2023-03-08T12:21:08.735Z,6.91
2023-03-08T12:22:39.425Z,6.97
2023-03-08T12:23:51.993Z,6.98
2023-03-08T12:25:29.758Z,7.04
2023-03-08T12:26:50.700Z,7.01
2023-03-08T12:28:07.277Z,7.09
2023-03-08T12:29:23.581Z,7.12
2023-03-08T12:30:52.243Z,7.19
2023-03-08T12:32:01.742Z,7.15
2023-03-08T12:33:27.962Z,7.23
2023-03-08T12:34:41.238Z,7.32
2023-03-08T12:35:57.237Z,7.36
2023-03-08T12:37:04.227Z,7.49
2023-03-08T12:40:00.933Z,7.58
2023-03-08T12:41:04.390Z,7.59
2023-03-08T12:42:22.018Z,7.65
2023-03-08T12:43:35.573Z,7.68
2023-03-08T12:44:41.643Z,7.71
2023-03-08T12:45:53.260Z,7.77
2023-03-08T12:47:03.415Z,7.83
2023-03-08T12:48:20.932Z,7.87
2023-03-08T12:49:36.345Z,7.99
2023-03-08T12:50:44.719Z,8.03
2023-03-08T12:52:00.403Z,8.04
2023-03-08T12:53:02.716Z,8.06
2023-03-08T12:54:08.335Z,8.10
2023-03-08T12:55:27.261Z,8.19
2023-03-08T12:56:35.662Z,8.17
2023-03-08T12:57:48.288Z,8.25
2023-03-08T12:58:54.006Z,8.25
2023-03-08T13:00:02.166Z,8.32
2023-03-08T13:01:41.350Z,8.29
2023-03-08T13:03:07.849Z,8.41
2023-03-08T13:04:41.051Z,8.44
2023-03-08T13:05:50.429Z,8.41
2023-03-08T13:07:25.771Z,8.43
2023-03-08T13:08:37.851Z,8.44
2023-03-08T13:09:53.209Z,8.44
2023-03-08T13:11:03.984Z,8.50
2023-03-08T13:12:26.776Z,8.42
2023-03-08T13:13:42.252Z,8.42
2023-03-08T13:14:49.362Z,8.49
2023-03-08T13:15:51.583Z,8.57
2023-03-08T13:17:01.959Z,8.59
2023-03-08T13:18:17.479Z,8.61
2023-03-08T13:19:29.169Z,8.58
2023-03-08T13:20:52.876Z,8.66
2023-03-08T13:22:15.874Z,8.57
2023-03-08T13:23:31.208Z,8.61
2023-03-08T13:24:45.559Z,8.68
2023-03-08T13:26:10.166Z,8.69
2023-03-08T13:28:50.279Z,8.72
2023-03-08T13:29:52.878Z,8.70
2023-03-08T13:31:13.074Z,8.74
2023-03-08T13:32:38.899Z,8.75
2023-03-08T13:33:56.294Z,8.84
2023-03-08T13:35:16.046Z,8.79
2023-03-08T13:36:20.977Z,8.72
2023-03-08T13:37:42.771Z,8.69
2023-03-08T13:38:58.494Z,8.73
2023-03-08T13:40:07.282Z,8.81
2023-03-08T13:41:09.367Z,8.81
2023-03-08T13:42:15.116Z,8.78
2023-03-08T13:43:20.135Z,8.83
2023-03-08T13:44:45.865Z,8.83
2023-03-08T13:46:11.631Z,8.93
2023-03-08T13:47:25.739Z,8.98
2023-03-08T13:48:33.260Z,9.01
2023-03-08T13:49:41.444Z,8.99
2023-03-08T13:50:53.401Z,8.96
2023-03-08T13:51:58.447Z,9.02
2023-03-08T13:53:08.198Z,9.03
2023-03-08T13:54:17.578Z,9.05
2023-03-08T13:55:28.338Z,9.02
2023-03-08T13:56:33.412Z,8.98
2023-03-08T13:57:38.234Z,9.02
2023-03-08T13:58:50.056Z,9.05
2023-03-08T13:59:57.235Z,9.10
2023-03-08T14:01:02.315Z,9.16
2023-03-08T14:02:24.776Z,9.24
2023-03-08T14:03:29.437Z,9.23
2023-03-08T14:04:34.586Z,9.19
2023-03-08T14:05:42.941Z,9.23
2023-03-08T14:06:54.726Z,9.26
2023-03-08T14:08:04.910Z,9.29
2023-03-08T14:09:07.579Z,9.25
2023-03-08T14:10:16.858Z,9.17
2023-03-08T14:11:25.549Z,9.27
2023-03-08T14:12:30.362Z,9.26
2023-03-08T14:13:37.735Z,9.26
2023-03-08T14:14:46.555Z,9.22
2023-03-08T14:15:50.168Z,9.21
2023-03-08T14:16:59.394Z,9.26
2023-03-08T14:18:11.202Z,9.15
2023-03-08T14:19:29.755Z,9.14
2023-03-08T14:20:32.591Z,9.12
2023-03-08T14:21:37.688Z,9.13
2023-03-08T14:22:40.529Z,9.16
2023-03-08T14:23:49.303Z,9.09
2023-03-08T14:25:00.368Z,9.10
2023-03-08T14:26:03.925Z,9.08
2023-03-08T14:27:28.562Z,9.14
2023-03-08T14:28:40.759Z,9.12
2023-03-08T14:29:47.711Z,9.18
2023-03-08T14:30:53.410Z,9.22
2023-03-08T14:31:59.551Z,9.28
2023-03-08T14:33:10.027Z,9.27
2023-03-08T14:34:20.460Z,9.31
2023-03-08T14:35:28.340Z,9.31
2023-03-08T14:36:33.393Z,9.39
2023-03-08T14:39:00.798Z,9.34
2023-03-08T14:40:33.731Z,9.41
2023-03-08T14:41:37.609Z,9.39
2023-03-08T14:42:47.496Z,9.36
2023-03-08T14:43:50.764Z,9.43
2023-03-08T14:44:59.662Z,9.43
2023-03-08T14:46:05.007Z,9.40
2023-03-08T14:47:21.845Z,9.40
2023-03-08T14:48:35.369Z,9.34
2023-03-08T14:49:37.642Z,9.35
2023-03-08T14:50:55.212Z,9.30
2023-03-08T14:52:00.503Z,9.32
2023-03-08T14:53:06.572Z,9.35
2023-03-08T14:54:22.677Z,9.28
2023-03-08T14:55:30.764Z,9.19
2023-03-08T14:56:36.547Z,9.14
2023-03-08T14:57:43.333Z,8.98
2023-03-08T14:58:51.895Z,8.92
2023-03-08T14:59:59.690Z,8.84